Time;durP1;ratioP1;P1;durP2;ratioP2;P2;SDS_P1;SDS_P2;PMS_P1;PMS_P2;Temp;Humidity;BMP_temperature;BMP_pressure;BME280_temperature;BME280_humidity;BME280_pressure;Samples;Min_cycle;Max_cycle;Signal;HPM_P1;HPM_P2
2023/06/22 00:01:03;;;;;;;0.00;0.00;;;;;;;26.83;50.75;102035.16;5033536;28;20037;-80
2023/06/22 00:03:28;;;;;;;0.00;0.00;;;;;;;26.87;50.95;102031.50;5024102;28;20053;-80
2023/06/22 00:05:54;;;;;;;0.00;0.00;;;;;;;26.80;51.04;102035.78;5014243;28;20029;-81
2023/06/22 00:08:19;;;;;;;0.00;0.00;;;;;;;26.68;51.78;102027.97;5012043;28;20495;-81
2023/06/22 00:10:45;;;;;;;0.00;0.00;;;;;;;26.89;52.01;102029.25;5018744;28;20493;-81
2023/06/22 00:13:12;;;;;;;0.00;0.00;;;;;;;26.58;52.98;102028.16;5032766;28;20132;-82
2023/06/22 00:15:39;;;;;;;0.00;0.00;;;;;;;26.61;52.78;102019.25;5022786;28;20045;-80
2023/06/22 00:18:06;;;;;;;0.00;0.00;;;;;;;26.67;52.61;102034.59;5001570;28;20072;-81
2023/06/22 00:20:32;;;;;;;0.00;0.00;;;;;;;26.72;52.41;102030.97;5008949;28;20030;-80
2023/06/22 00:22:59;;;;;;;0.00;0.00;;;;;;;26.63;52.33;102032.75;5032118;28;20156;-82
2023/06/22 00:25:24;;;;;;;0.00;0.00;;;;;;;26.48;52.09;102016.47;5011746;28;20038;-79
2023/06/22 00:27:50;;;;;;;0.00;0.00;;;;;;;26.47;51.94;102014.84;5011914;28;20084;-81
2023/06/22 00:30:17;;;;;;;0.00;0.00;;;;;;;26.49;52.01;102013.44;5019763;28;20037;-81
2023/06/22 00:32:43;;;;;;;0.00;0.00;;;;;;;26.74;51.52;102020.44;5027398;28;20536;-81
2023/06/22 00:35:10;;;;;;;0.00;0.00;;;;;;;26.67;51.27;102018.03;5040267;28;20525;-82
2023/06/22 00:37:35;;;;;;;0.00;0.00;;;;;;;26.36;52.15;102022.47;5040798;28;20541;-80
2023/06/22 00:40:01;;;;;;;0.00;0.00;;;;;;;26.62;51.88;102014.56;5032875;28;20072;-81
2023/06/22 00:42:27;;;;;;;0.00;0.00;;;;;;;26.58;52.11;102008.84;5049029;28;20029;-82
2023/06/22 00:44:52;;;;;;;0.00;0.00;;;;;;;26.54;51.78;102012.50;5039729;28;20020;-80
2023/06/22 00:47:18;;;;;;;0.00;0.00;;;;;;;26.66;51.94;102010.06;5043496;28;20034;-80
2023/06/22 00:49:46;;;;;;;0.00;0.00;;;;;;;26.51;52.14;102007.63;5042968;28;20033;-81
2023/06/22 00:52:13;;;;;;;0.00;0.00;;;;;;;26.74;52.13;102004.72;5049212;28;20033;-81
2023/06/22 00:54:46;;;;;;;0.00;0.00;;;;;;;26.63;51.89;102002.44;5053071;28;20029;-82
2023/06/22 00:57:17;;;;;;;0.00;0.00;;;;;;;26.68;52.53;101997.63;5053050;28;20040;-81
2023/06/22 00:59:48;;;;;;;0.00;0.00;;;;;;;26.40;53.22;102003.38;5053355;28;20175;-83
2023/06/22 01:02:13;;;;;;;0.00;0.00;;;;;;;26.52;53.23;102009.22;5036723;28;20064;-80
2023/06/22 01:04:39;;;;;;;0.00;0.00;;;;;;;26.38;53.34;102009.19;5052058;28;20033;-81
2023/06/22 01:07:25;;;;;;;0.00;0.00;;;;;;;26.66;52.44;101996.28;5044347;28;20040;-80
2023/06/22 01:10:12;;;;;;;0.00;0.00;;;;;;;26.76;52.59;102008.00;5047446;28;20029;-81
2023/06/22 01:12:43;;;;;;;0.00;0.00;;;;;;;26.42;53.52;102001.13;5041839;28;20425;-80
2023/06/22 01:15:19;;;;;;;0.00;0.00;;;;;;;26.48;53.43;101997.19;5042923;28;20033;-80
2023/06/22 01:17:48;;;;;;;0.00;0.00;;;;;;;26.40;53.92;101993.19;5031898;28;20036;-79
2023/06/22 01:20:15;;;;;;;0.00;0.00;;;;;;;26.64;53.21;101993.03;5048631;28;20027;-80
2023/06/22 01:22:52;;;;;;;0.00;0.00;;;;;;;26.68;53.31;101997.63;5029969;28;20030;-80
2023/06/22 01:25:28;;;;;;;0.00;0.00;;;;;;;26.47;53.87;102001.06;5014674;28;20034;-82
2023/06/22 01:28:08;;;;;;;0.00;0.00;;;;;;;26.43;54.54;101989.00;5024106;28;20068;-81
2023/06/22 01:30:34;;;;;;;0.00;0.00;;;;;;;26.45;54.25;101989.53;5032007;28;20520;-81
2023/06/22 01:33:02;;;;;;;0.00;0.00;;;;;;;26.27;54.85;101996.72;5026867;28;20014;-81
2023/06/22 01:35:29;;;;;;;0.00;0.00;;;;;;;26.35;55.31;102000.72;5011964;28;20041;-81
2023/06/22 01:37:55;;;;;;;0.00;0.00;;;;;;;26.29;54.98;102004.69;5019719;28;20145;-81
2023/06/22 01:40:21;;;;;;;0.00;0.00;;;;;;;26.40;54.21;102001.44;5029319;28;20038;-81
2023/06/22 01:42:48;;;;;;;0.00;0.00;;;;;;;26.38;54.77;102000.13;5021324;28;20065;-82
2023/06/22 01:45:14;;;;;;;0.00;0.00;;;;;;;26.30;54.61;102001.63;5031085;28;20033;-80
2023/06/22 01:47:40;;;;;;;0.00;0.00;;;;;;;26.28;54.72;101995.59;5026657;28;20029;-80
2023/06/22 01:50:06;;;;;;;0.00;0.00;;;;;;;26.33;54.92;102002.97;5031556;28;20079;-80
2023/06/22 01:52:33;;;;;;;0.00;0.00;;;;;;;26.24;55.09;102005.59;5025001;28;20033;-79
2023/06/22 01:54:59;;;;;;;0.00;0.00;;;;;;;26.14;54.87;102005.78;5031496;28;20099;-81
2023/06/22 01:57:47;;;;;;;0.00;0.00;;;;;;;26.61;54.51;102002.72;5030995;28;20048;-80
2023/06/22 02:00:22;;;;;;;0.00;0.00;;;;;;;26.61;53.74;101994.44;5024576;28;20037;-80
2023/06/22 02:03:15;;;;;;;0.00;0.00;;;;;;;26.36;54.73;101994.91;5031880;28;20037;-79
2023/06/22 02:05:49;;;;;;;0.00;0.00;;;;;;;26.38;54.70;101991.88;5019351;28;20043;-80
2023/06/22 02:08:22;;;;;;;0.00;0.00;;;;;;;26.49;54.80;101985.88;5013950;28;20620;-80
2023/06/22 02:10:50;;;;;;;0.00;0.00;;;;;;;26.42;54.17;101984.59;5013774;28;20381;-80
2023/06/22 02:13:16;;;;;;;0.00;0.00;;;;;;;26.55;54.58;101984.66;5030496;28;20069;-80
2023/06/22 02:15:41;;;;;;;0.00;0.00;;;;;;;26.34;55.00;101988.88;5031312;28;20068;-79
2023/06/22 02:18:07;;;;;;;0.00;0.00;;;;;;;26.28;55.11;101987.31;5024311;28;20200;-80
2023/06/22 02:20:35;;;;;;;0.00;0.00;;;;;;;26.29;55.63;101986.22;5028272;28;20038;-79
2023/06/22 02:23:01;;;;;;;0.00;0.00;;;;;;;26.35;54.96;101986.94;5029717;28;20025;-82
2023/06/22 02:25:26;;;;;;;0.00;0.00;;;;;;;26.24;55.37;101985.50;5032353;28;20080;-81
2023/06/22 02:27:52;;;;;;;0.00;0.00;;;;;;;26.19;55.34;101978.13;5024996;28;20393;-81
2023/06/22 02:30:17;;;;;;;0.00;0.00;;;;;;;26.18;54.38;101976.47;5030659;28;20091;-79
2023/06/22 02:32:43;;;;;;;0.00;0.00;;;;;;;26.15;55.27;101968.81;5028692;28;20040;-82
2023/06/22 02:35:09;;;;;;;0.00;0.00;;;;;;;26.34;54.73;101986.13;5032283;28;20335;-80
2023/06/22 02:37:41;;;;;;;0.00;0.00;;;;;;;26.05;55.90;101977.22;5004010;28;20129;-80
2023/06/22 02:40:08;;;;;;;0.00;0.00;;;;;;;26.06;55.39;101981.66;5027138;28;20033;-81
2023/06/22 02:42:34;;;;;;;0.00;0.00;;;;;;;26.24;55.49;101974.47;5039384;28;20072;-80
2023/06/22 02:45:00;;;;;;;0.00;0.00;;;;;;;26.14;55.62;101983.75;5048036;28;20033;-81
2023/06/22 02:47:26;;;;;;;0.00;0.00;;;;;;;26.09;55.44;101978.31;5046668;28;20052;-80
2023/06/22 02:49:51;;;;;;;0.00;0.00;;;;;;;26.02;55.69;101978.63;5055876;28;20116;-80
2023/06/22 02:52:16;;;;;;;0.00;0.00;;;;;;;26.02;55.88;101972.34;5038340;28;20048;-83
2023/06/22 02:54:42;;;;;;;0.00;0.00;;;;;;;26.08;55.81;101969.22;5050461;28;20091;-80
2023/06/22 02:57:13;;;;;;;0.00;0.00;;;;;;;26.04;56.06;101976.41;5043813;28;20033;-82
2023/06/22 02:59:42;;;;;;;0.00;0.00;;;;;;;26.27;55.65;101980.19;5055547;28;20107;-82
2023/06/22 03:02:08;;;;;;;0.00;0.00;;;;;;;26.20;55.98;101976.19;5040036;28;20491;-81
2023/06/22 03:04:35;;;;;;;0.00;0.00;;;;;;;26.25;55.94;101976.91;5043153;28;20361;-81
2023/06/22 03:07:01;;;;;;;0.00;0.00;;;;;;;26.45;55.32;101970.22;5055074;28;20098;-81
2023/06/22 03:09:27;;;;;;;0.00;0.00;;;;;;;26.18;56.21;101976.47;5054927;28;20029;-80
2023/06/22 03:11:56;;;;;;;0.00;0.00;;;;;;;26.12;56.30;101977.72;5040353;28;20033;-82
2023/06/22 03:14:21;;;;;;;0.00;0.00;;;;;;;25.93;56.85;101971.38;5017331;28;20057;-79
2023/06/22 03:16:47;;;;;;;0.00;0.00;;;;;;;26.06;56.73;101973.41;5036147;28;20099;-80
2023/06/22 03:19:13;;;;;;;0.00;0.00;;;;;;;26.04;56.70;101975.59;5034673;28;20041;-79
2023/06/22 03:21:39;;;;;;;0.00;0.00;;;;;;;25.95;56.83;101972.72;5035785;28;20041;-80
2023/06/22 03:24:06;;;;;;;0.00;0.00;;;;;;;25.91;56.69;101966.16;5035861;28;20034;-81
2023/06/22 03:26:31;;;;;;;0.00;0.00;;;;;;;26.06;56.28;101976.94;5040107;28;20434;-82
2023/06/22 03:28:57;;;;;;;0.00;0.00;;;;;;;26.07;55.88;101977.78;5045542;28;20032;-81
2023/06/22 03:31:22;;;;;;;0.00;0.00;;;;;;;26.14;56.11;101977.41;5044237;28;20033;-80
2023/06/22 03:33:49;;;;;;;0.00;0.00;;;;;;;26.34;55.82;101968.78;5049413;28;20072;-80
2023/06/22 03:36:18;;;;;;;0.00;0.00;;;;;;;26.12;56.60;101972.19;5053505;28;20392;-81
2023/06/22 03:38:44;;;;;;;0.00;0.00;;;;;;;26.08;56.68;101976.69;5016095;28;20041;-81
2023/06/22 03:41:10;;;;;;;0.00;0.00;;;;;;;26.14;56.77;101991.19;5017074;28;20037;-81
2023/06/22 03:43:35;;;;;;;0.00;0.00;;;;;;;26.20;56.68;101981.72;5037520;28;20029;-81
2023/06/22 03:46:01;;;;;;;0.00;0.00;;;;;;;26.13;56.60;101982.09;5037410;28;20042;-80
2023/06/22 03:48:26;;;;;;;0.00;0.00;;;;;;;26.22;56.57;101979.47;5055891;28;20041;-80
2023/06/22 03:50:51;;;;;;;0.00;0.00;;;;;;;26.11;56.46;101970.56;5054333;28;20044;-80
2023/06/22 03:53:17;;;;;;;0.00;0.00;;;;;;;26.03;56.87;101972.03;5055462;28;20028;-80
2023/06/22 03:55:52;;;;;;;0.00;0.00;;;;;;;26.15;56.51;101966.06;5055320;28;20037;-80
2023/06/22 03:58:42;;;;;;;0.00;0.00;;;;;;;26.10;57.80;101969.72;5040372;28;20190;-81
2023/06/22 04:01:11;;;;;;;0.00;0.00;;;;;;;26.18;56.79;101967.41;5039502;28;20114;-81
2023/06/22 04:03:37;;;;;;;0.00;0.00;;;;;;;25.94;57.89;101971.09;5040023;28;20040;-81
2023/06/22 04:06:02;;;;;;;0.00;0.00;;;;;;;26.05;56.97;101964.28;5022359;28;20038;-81
2023/06/22 04:08:27;;;;;;;0.00;0.00;;;;;;;26.13;56.88;101970.25;5017857;28;20033;-82
2023/06/22 04:10:53;;;;;;;0.00;0.00;;;;;;;26.09;57.12;101964.53;5000216;28;20022;-81
2023/06/22 04:16:40;;;;;;;0.00;0.00;;;;;;;25.95;57.97;101972.72;5038579;28;20053;-81
2023/06/22 04:19:06;;;;;;;0.00;0.00;;;;;;;26.10;57.11;101977.19;5034803;28;20437;-80
2023/06/22 04:21:31;;;;;;;0.00;0.00;;;;;;;26.29;56.51;101975.19;5016671;28;20046;-81
2023/06/22 04:23:56;;;;;;;0.00;0.00;;;;;;;26.05;56.80;101975.31;5034352;28;20509;-80
2023/06/22 04:26:22;;;;;;;0.00;0.00;;;;;;;26.24;56.97;101974.47;5039494;28;20041;-81
2023/06/22 04:28:55;;;;;;;0.00;0.00;;;;;;;26.13;57.04;101968.31;5040321;28;20029;-80
2023/06/22 04:31:21;;;;;;;0.00;0.00;;;;;;;26.23;56.75;101970.91;5039535;28;20144;-80
2023/06/22 04:33:46;;;;;;;0.00;0.00;;;;;;;26.07;57.02;101973.09;5016495;28;20034;-83
2023/06/22 04:36:14;;;;;;;0.00;0.00;;;;;;;26.22;56.53;101973.97;5033297;28;20032;-82
2023/06/22 04:38:40;;;;;;;0.08;0.08;;;;;;;26.07;56.38;101970.34;5048820;28;20067;-83
2023/06/22 04:41:06;;;;;;;0.00;0.00;;;;;;;26.39;56.51;101961.25;5034255;28;20029;-83
2023/06/22 04:43:33;;;;;;;0.00;0.00;;;;;;;26.33;56.67;101962.44;5045425;28;20036;-82
2023/06/22 04:46:03;;;;;;;0.00;0.00;;;;;;;26.24;56.75;101953.22;5036614;28;20034;-81
2023/06/22 04:48:32;;;;;;;0.00;0.00;;;;;;;26.39;56.84;101955.72;5037397;28;20041;-81
2023/06/22 04:51:02;;;;;;;0.00;0.00;;;;;;;26.15;57.51;101954.22;5049656;28;20030;-80
2023/06/22 04:53:29;;;;;;;0.10;0.10;;;;;;;26.35;56.82;101959.38;5019721;28;20099;-82
2023/06/22 04:55:55;;;;;;;0.00;0.00;;;;;;;26.53;56.26;101947.47;5036812;28;20025;-82
2023/06/22 04:58:21;;;;;;;0.00;0.00;;;;;;;26.53;56.12;101947.47;5035457;28;20030;-81
2023/06/22 05:04:08;;;;;;;0.00;0.00;;;;;;;26.55;56.20;101951.56;5034722;28;20099;-81
2023/06/22 05:06:34;;;;;;;0.00;0.00;;;;;;;26.47;57.05;101948.69;5048841;28;20469;-84
2023/06/22 05:08:59;;;;;;;0.00;0.00;;;;;;;26.50;56.13;101942.53;5031860;28;20025;-82
2023/06/22 05:11:26;;;;;;;0.00;0.00;;;;;;;26.19;57.27;101942.31;5021047;28;20363;-81
2023/06/22 05:13:52;;;;;;;0.00;0.00;;;;;;;26.57;56.06;101942.97;5032191;28;20093;-82
2023/06/22 05:16:17;;;;;;;0.00;0.00;;;;;;;26.70;55.31;101942.16;5031801;28;20704;-81
2023/06/22 05:18:43;;;;;;;0.00;0.00;;;;;;;26.42;56.57;101946.00;5036009;28;20163;-81
2023/06/22 05:21:09;;;;;;;0.00;0.00;;;;;;;26.82;55.52;101956.28;5041625;28;20048;-83
2023/06/22 05:23:34;;;;;;;0.00;0.00;;;;;;;26.78;55.65;101958.03;5038179;28;20032;-80
2023/06/22 05:25:59;;;;;;;0.00;0.00;;;;;;;27.08;54.93;101956.56;5009989;28;20029;-82
2023/06/22 05:28:25;;;;;;;0.00;0.00;;;;;;;26.81;55.32;101960.19;5007127;28;20042;-79
2023/06/22 05:30:50;;;;;;;0.00;0.00;;;;;;;26.93;54.57;101964.03;5021296;28;20030;-80
2023/06/22 05:33:16;;;;;;;0.00;0.00;;;;;;;26.69;55.41;101957.09;5036686;28;20042;-72
2023/06/22 05:35:41;;;;;;;0.00;0.00;;;;;;;26.84;55.79;101960.38;5027984;28;20438;-71
2023/06/22 05:38:06;;;;;;;0.00;0.00;;;;;;;26.65;55.44;101961.56;5039540;28;20025;-72
2023/06/22 05:40:32;;;;;;;0.00;0.00;;;;;;;26.75;55.63;101951.16;5033320;28;20042;-72
2023/06/22 05:42:57;;;;;;;0.00;0.00;;;;;;;27.14;54.69;101958.09;5028907;28;20033;-70
2023/06/22 05:45:23;;;;;;;0.00;0.00;;;;;;;26.79;55.50;101951.41;5028891;28;20079;-71
2023/06/22 05:47:48;;;;;;;0.00;0.00;;;;;;;27.02;54.43;101952.28;5028984;28;20034;-70
2023/06/22 05:50:13;;;;;;;0.00;0.00;;;;;;;27.24;53.55;101946.84;5029407;28;20029;-73
2023/06/22 05:52:39;;;;;;;0.00;0.00;;;;;;;27.32;53.82;101954.41;5028936;28;20029;-71
2023/06/22 05:55:05;;;;;;;0.00;0.00;;;;;;;27.41;53.18;101960.84;5028978;28;20040;-71
2023/06/22 05:57:30;;;;;;;0.00;0.00;;;;;;;27.64;53.33;101971.59;5032751;28;20444;-70
2023/06/22 05:59:55;;;;;;;0.00;0.00;;;;;;;27.51;53.25;101969.72;5033892;28;20033;-70
2023/06/22 06:02:21;;;;;;;0.00;0.00;;;;;;;26.93;55.40;101971.50;5030455;28;20059;-67
2023/06/22 06:04:46;;;;;;;0.00;0.00;;;;;;;27.23;54.15;101970.03;5035074;28;20017;-70
2023/06/22 06:07:11;;;;;;;0.00;0.00;;;;;;;27.83;52.43;101977.78;5028352;28;20030;-72
2023/06/22 06:09:37;;;;;;;0.00;0.00;;;;;;;27.78;51.93;101966.03;5038757;28;20405;-70
2023/06/22 06:12:03;;;;;;;0.00;0.00;;;;;;;27.38;52.95;101964.22;5043821;28;20032;-73
2023/06/22 06:14:28;;;;;;;0.00;0.00;;;;;;;27.79;51.68;101962.94;5040418;28;20559;-70
2023/06/22 06:16:53;;;;;;;0.00;0.00;;;;;;;27.95;51.02;101963.41;5039965;28;20103;-69
2023/06/22 06:19:19;;;;;;;0.00;0.00;;;;;;;28.48;50.16;101963.44;5042843;28;20044;-72
2023/06/22 06:21:45;;;;;;;0.00;0.00;;;;;;;28.44;50.30;101973.50;5042791;28;20040;-70
2023/06/22 06:24:11;;;;;;;0.00;0.00;;;;;;;28.67;49.72;101972.34;5043183;28;20037;-71
2023/06/22 06:26:37;;;;;;;0.00;0.00;;;;;;;28.73;48.84;101975.78;5041736;28;20021;-71
2023/06/22 06:29:02;;;;;;;0.00;0.00;;;;;;;28.12;50.59;101969.09;5043858;28;20021;-69
2023/06/22 06:31:28;;;;;;;0.00;0.00;;;;;;;28.71;48.95;101973.31;5036143;28;20156;-71
2023/06/22 06:33:54;;;;;;;0.00;0.00;;;;;;;28.37;49.54;101967.59;5033277;28;20041;-70
2023/06/22 06:36:20;;;;;;;0.00;0.00;;;;;;;28.66;49.10;101973.44;5033287;28;20128;-70
2023/06/22 06:38:47;;;;;;;0.00;0.00;;;;;;;28.00;50.84;101973.53;5033164;28;20424;-73
2023/06/22 06:41:13;;;;;;;0.00;0.00;;;;;;;28.22;50.16;101977.13;5031734;28;20110;-71
2023/06/22 06:43:38;;;;;;;0.00;0.00;;;;;;;28.65;49.34;101977.38;5033432;28;20041;-72
2023/06/22 06:46:04;;;;;;;0.00;0.00;;;;;;;28.81;49.51;101977.75;5032159;28;20076;-72
2023/06/22 06:48:30;;;;;;;0.00;0.00;;;;;;;28.95;48.42;101972.94;5032298;28;20033;-73
2023/06/22 06:50:55;;;;;;;0.00;0.00;;;;;;;28.76;48.91;101972.34;5031905;28;20132;-72
2023/06/22 06:53:21;;;;;;;0.00;0.00;;;;;;;28.95;48.28;101976.50;5014793;28;20034;-71
2023/06/22 06:55:46;;;;;;;0.00;0.00;;;;;;;29.09;48.13;101971.66;5032081;28;20029;-72
2023/06/22 06:58:13;;;;;;;0.00;0.00;;;;;;;28.74;49.13;101966.34;5031990;28;20053;-72
2023/06/22 07:00:39;;;;;;;0.00;0.00;;;;;;;28.76;48.52;101975.94;5032054;28;20069;-71
2023/06/22 07:03:04;;;;;;;0.00;0.00;;;;;;;28.09;50.48;101961.41;5015016;28;20041;-73
2023/06/22 07:05:30;;;;;;;0.00;0.00;;;;;;;28.81;48.03;101961.16;5032884;28;20040;-76
2023/06/22 07:07:56;;;;;;;0.00;0.00;;;;;;;29.26;47.23;101946.81;5032801;28;20030;-73
2023/06/22 07:10:21;;;;;;;0.00;0.00;;;;;;;28.51;48.41;101947.00;5032927;28;20029;-72
2023/06/22 07:12:47;;;;;;;0.00;0.00;;;;;;;29.11;47.25;101951.97;5032289;28;20124;-75
2023/06/22 07:15:13;;;;;;;0.00;0.00;;;;;;;29.22;46.91;101953.31;5015149;28;20041;-73
2023/06/22 07:17:40;;;;;;;0.00;0.00;;;;;;;29.50;46.05;101951.88;5032531;28;20033;-73
2023/06/22 07:20:13;;;;;;;0.00;0.00;;;;;;;29.23;47.04;101943.84;5032879;28;20097;-72
2023/06/22 07:22:39;;;;;;;0.00;0.00;;;;;;;29.02;48.15;101946.41;5032461;28;20172;-73
2023/06/22 07:25:09;;;;;;;0.00;0.00;;;;;;;29.65;46.36;101939.47;5032428;28;20047;-76
2023/06/22 07:27:39;;;;;;;0.00;0.00;;;;;;;29.44;46.36;101934.59;5031484;28;20068;-72
2023/06/22 07:30:06;;;;;;;0.00;0.00;;;;;;;29.34;46.82;101931.34;5032195;28;20599;-72
2023/06/22 07:32:32;;;;;;;0.00;0.00;;;;;;;29.15;46.81;101926.09;5032683;28;20049;-73
2023/06/22 07:34:57;;;;;;;0.00;0.00;;;;;;;29.69;45.72;101921.88;5032711;28;20017;-72
2023/06/22 07:37:23;;;;;;;0.00;0.00;;;;;;;29.52;46.53;101919.91;5032288;28;20039;-72
2023/06/22 07:39:50;;;;;;;0.00;0.00;;;;;;;29.60;46.34;101923.03;5032009;28;20026;-73
2023/06/22 07:42:18;;;;;;;0.00;0.00;;;;;;;29.84;45.41;101920.56;5032634;28;20034;-73
2023/06/22 07:44:44;;;;;;;0.00;0.00;;;;;;;30.17;44.83;101916.13;5032462;28;20111;-72
2023/06/22 07:47:09;;;;;;;0.00;0.00;;;;;;;30.45;44.02;101913.75;5032933;28;20091;-73
2023/06/22 07:49:34;;;;;;;0.00;0.00;;;;;;;30.33;44.21;101919.19;5032003;28;20057;-73
2023/06/22 07:52:01;;;;;;;0.00;0.00;;;;;;;29.95;45.30;101922.69;5032075;28;20529;-72
2023/06/22 07:54:26;;;;;;;0.00;0.00;;;;;;;30.10;45.08;101916.63;5031905;28;20050;-74
2023/06/22 07:56:53;;;;;;;0.00;0.00;;;;;;;30.47;44.00;101920.59;5014098;28;20029;-73
2023/06/22 07:59:18;;;;;;;0.00;0.00;;;;;;;30.04;45.17;101917.09;5032491;28;20100;-72
2023/06/22 08:01:44;;;;;;;0.00;0.00;;;;;;;30.47;44.46;101917.81;5031593;28;20124;-73
2023/06/22 08:04:09;;;;;;;0.00;0.00;;;;;;;31.01;42.58;101916.91;5031580;28;20045;-72
2023/06/22 08:06:35;;;;;;;0.00;0.00;;;;;;;31.10;42.53;101911.28;5031772;28;20127;-72
2023/06/22 08:09:00;;;;;;;0.00;0.00;;;;;;;30.96;43.03;101916.28;5031020;28;20052;-73
2023/06/22 08:11:25;;;;;;;0.00;0.00;;;;;;;30.24;44.63;101895.03;5031585;28;20613;-71
2023/06/22 08:13:52;;;;;;;0.00;0.00;;;;;;;30.76;43.48;101909.50;5031907;28;20056;-71
2023/06/22 08:16:17;;;;;;;0.00;0.00;;;;;;;31.34;41.46;101900.31;5031327;28;20386;-72
2023/06/22 08:18:43;;;;;;;0.00;0.00;;;;;;;31.18;42.37;101904.84;5029284;28;20032;-73
2023/06/22 08:21:08;;;;;;;0.00;0.00;;;;;;;29.97;44.17;101902.94;5031143;28;20501;-72
2023/06/22 08:23:34;;;;;;;0.00;0.00;;;;;;;30.53;43.53;101897.06;5029588;28;20037;-72
2023/06/22 08:26:00;;;;;;;0.00;0.00;;;;;;;30.31;43.99;101895.34;5031455;28;20029;-71
2023/06/22 08:28:25;;;;;;;0.00;0.00;;;;;;;31.00;42.31;101909.72;5027558;28;20045;-73
2023/06/22 08:30:50;;;;;;;0.00;0.00;;;;;;;31.16;42.24;101898.81;5008630;28;20045;-72
2023/06/22 08:33:16;;;;;;;0.00;0.00;;;;;;;30.52;43.18;101902.94;5021227;28;20042;-72
2023/06/22 08:35:41;;;;;;;0.00;0.00;;;;;;;30.84;42.68;101900.34;4977036;28;20141;-71
2023/06/22 08:38:08;;;;;;;0.00;0.00;;;;;;;30.17;44.46;101891.16;5014283;28;20563;-73
2023/06/22 08:40:34;;;;;;;0.00;0.00;;;;;;;30.83;43.53;101878.44;5029364;28;20041;-71
2023/06/22 08:42:59;;;;;;;0.00;0.00;;;;;;;30.89;43.16;101885.47;5029698;28;20052;-71
2023/06/22 08:45:24;;;;;;;0.00;0.00;;;;;;;31.82;41.02;101875.50;5029522;28;20091;-71
2023/06/22 08:47:50;;;;;;;0.00;0.00;;;;;;;31.33;41.66;101872.88;5030277;28;20030;-73
2023/06/22 08:50:15;;;;;;;0.00;0.00;;;;;;;31.25;41.77;101869.03;5029958;28;20486;-72
2023/06/22 08:52:43;;;;;;;0.00;0.00;;;;;;;31.89;40.55;101864.66;5029854;28;20036;-73
2023/06/22 08:55:09;;;;;;;0.00;0.00;;;;;;;31.77;40.71;101850.72;5030293;28;20030;-73
2023/06/22 08:57:37;;;;;;;0.00;0.00;;;;;;;32.09;39.83;101853.81;5029752;28;20033;-73
2023/06/22 09:00:05;;;;;;;0.00;0.00;;;;;;;32.28;39.94;101854.06;5028039;28;20474;-71
2023/06/22 09:02:31;;;;;;;0.00;0.00;;;;;;;32.10;40.16;101841.56;5029484;28;20025;-71
2023/06/22 09:05:04;;;;;;;0.00;0.00;;;;;;;31.89;40.67;101836.03;5029277;28;20112;-73
2023/06/22 09:07:30;;;;;;;0.00;0.00;;;;;;;32.60;39.38;101837.28;5028423;28;20034;-74
2023/06/22 09:09:56;;;;;;;0.00;0.00;;;;;;;32.32;39.97;101844.69;5028601;28;20099;-72
2023/06/22 09:12:26;;;;;;;0.00;0.00;;;;;;;32.76;38.61;101842.94;5029655;28;20057;-72
2023/06/22 09:14:52;;;;;;;0.00;0.00;;;;;;;32.61;39.19;101836.13;5012733;28;20059;-73
2023/06/22 09:17:18;;;;;;;0.00;0.00;;;;;;;33.05;38.47;101841.88;5030122;28;20045;-72
2023/06/22 09:19:43;;;;;;;0.00;0.00;;;;;;;33.00;38.63;101834.59;5029934;28;20083;-72
2023/06/22 09:22:08;;;;;;;0.00;0.00;;;;;;;31.57;41.40;101831.31;5030328;28;20042;-71
2023/06/22 09:24:34;;;;;;;0.00;0.00;;;;;;;32.44;39.90;101827.16;5028078;28;20037;-71
2023/06/22 09:26:59;;;;;;;0.00;0.00;;;;;;;33.23;38.50;101829.25;5027446;28;20037;-73
2023/06/22 09:29:25;;;;;;;0.00;0.00;;;;;;;32.73;39.13;101832.50;5029250;28;20040;-71
2023/06/22 09:31:50;;;;;;;0.00;0.00;;;;;;;32.49;38.14;101826.97;5030092;28;20013;-72
2023/06/22 09:34:20;;;;;;;0.00;0.00;;;;;;;33.36;36.63;101830.81;5028819;28;20064;-72
2023/06/22 09:36:45;;;;;;;0.00;0.00;;;;;;;33.27;37.95;101824.59;5027996;28;20041;-71
2023/06/22 09:39:11;;;;;;;0.00;0.00;;;;;;;33.25;37.94;101835.28;5028569;28;20029;-71
2023/06/22 09:41:36;;;;;;;0.00;0.00;;;;;;;33.82;37.04;101830.16;5029411;28;20030;-73
2023/06/22 09:44:02;;;;;;;0.00;0.00;;;;;;;33.61;36.07;101833.16;5012157;28;20470;-71
2023/06/22 09:46:28;;;;;;;0.00;0.00;;;;;;;34.20;35.74;101838.72;5029309;28;20073;-71
2023/06/22 09:48:54;;;;;;;0.00;0.00;;;;;;;34.47;34.78;101837.88;5029391;28;20025;-72
2023/06/22 09:51:23;;;;;;;0.00;0.00;;;;;;;34.34;34.61;101830.72;5033326;28;20064;-71
2023/06/22 09:53:49;;;;;;;0.00;0.00;;;;;;;34.37;34.60;101818.03;5033488;28;20363;-72
2023/06/22 09:56:15;;;;;;;0.00;0.00;;;;;;;34.52;34.48;101820.00;5033982;28;20040;-72
2023/06/22 09:58:44;;;;;;;0.00;0.00;;;;;;;34.84;34.12;101821.53;5033794;28;20040;-71
2023/06/22 10:01:10;;;;;;;0.00;0.00;;;;;;;33.91;34.83;101821.59;5029612;28;20544;-71
2023/06/22 10:03:36;;;;;;;0.00;0.00;;;;;;;33.82;34.84;101815.41;5015078;28;20038;-72
2023/06/22 10:06:02;;;;;;;0.00;0.00;;;;;;;34.37;33.79;101809.66;5031083;28;20144;-73
2023/06/22 10:08:27;;;;;;;0.00;0.00;;;;;;;33.98;34.39;101807.88;5032623;28;20112;-72
2023/06/22 10:10:53;;;;;;;0.00;0.00;;;;;;;34.29;33.81;101810.66;5033752;28;20424;-71
2023/06/22 10:13:19;;;;;;;0.00;0.00;;;;;;;32.58;36.47;101803.44;5032569;28;20049;-72
2023/06/22 10:15:49;;;;;;;0.00;0.00;;;;;;;33.31;36.01;101814.38;5032777;28;20030;-75
2023/06/22 10:18:16;;;;;;;0.00;0.00;;;;;;;33.77;34.01;101807.31;5032805;28;20072;-72
2023/06/22 10:20:41;;;;;;;0.00;0.00;;;;;;;34.04;34.10;101806.44;5033379;28;20057;-72
2023/06/22 10:23:06;;;;;;;0.00;0.00;;;;;;;33.73;34.61;101804.41;5034037;28;20509;-69
2023/06/22 10:25:32;;;;;;;0.00;0.00;;;;;;;33.20;35.52;101807.69;5033734;28;20041;-72
2023/06/22 10:27:57;;;;;;;0.00;0.00;;;;;;;32.88;35.02;101811.47;5033130;28;20083;-74
2023/06/22 10:30:23;;;;;;;0.00;0.00;;;;;;;33.51;35.06;101805.81;5033051;28;20033;-73
2023/06/22 10:32:49;;;;;;;0.00;0.00;;;;;;;33.35;35.60;101804.97;5033706;28;20025;-72
2023/06/22 10:35:15;;;;;;;0.00;0.00;;;;;;;33.62;34.59;101804.13;5033745;28;20083;-73
2023/06/22 10:37:45;;;;;;;0.00;0.00;;;;;;;33.60;34.42;101794.50;5033325;28;20048;-73
2023/06/22 10:40:13;;;;;;;0.00;0.00;;;;;;;34.07;33.61;101798.16;5033203;28;20060;-72
2023/06/22 10:42:38;;;;;;;0.00;0.00;;;;;;;32.57;36.34;101806.56;5033355;28;20041;-72
2023/06/22 10:45:04;;;;;;;0.00;0.00;;;;;;;32.80;36.76;101800.13;5033281;28;20041;-73
2023/06/22 10:47:29;;;;;;;0.00;0.00;;;;;;;33.39;35.17;101796.69;5019949;28;20038;-72
2023/06/22 10:49:55;;;;;;;0.00;0.00;;;;;;;33.57;34.36;101806.38;5026367;28;20042;-72
2023/06/22 10:52:20;;;;;;;0.00;0.00;;;;;;;34.36;33.45;101796.84;5027968;28;20056;-73
2023/06/22 10:54:46;;;;;;;0.00;0.00;;;;;;;33.38;34.19;101806.19;5028727;28;20029;-71
2023/06/22 10:57:11;;;;;;;0.00;0.00;;;;;;;33.80;33.74;101803.78;5028587;28;20032;-73
2023/06/22 10:59:36;;;;;;;0.00;0.00;;;;;;;33.80;33.35;101809.38;5027786;28;20045;-73
2023/06/22 11:02:02;;;;;;;0.00;0.00;;;;;;;34.42;32.57;101803.78;5010899;28;20025;-71
2023/06/22 11:04:28;;;;;;;0.00;0.00;;;;;;;34.41;33.16;101808.56;5015924;28;20057;-72
2023/06/22 11:06:53;;;;;;;0.00;0.00;;;;;;;34.71;33.09;101805.28;5028283;28;20053;-74
2023/06/22 11:09:20;;;;;;;0.00;0.00;;;;;;;34.45;32.68;101809.47;5027965;28;20036;-72
2023/06/22 11:11:47;;;;;;;0.00;0.00;;;;;;;33.35;35.45;101807.75;5027818;28;20041;-72
2023/06/22 11:14:13;;;;;;;0.00;0.00;;;;;;;33.95;33.64;101801.00;5027835;28;20046;-71
2023/06/22 11:16:38;;;;;;;0.00;0.00;;;;;;;33.56;34.25;101807.53;4992370;28;20064;-72
2023/06/22 11:19:05;;;;;;;0.00;0.00;;;;;;;33.81;33.48;101797.06;5037649;28;20770;-72
2023/06/22 11:21:31;;;;;;;0.00;0.00;;;;;;;34.31;32.87;101803.53;5021571;28;20069;-72
2023/06/22 11:23:57;;;;;;;0.00;0.00;;;;;;;34.10;33.22;101802.22;5012326;28;20394;-71
2023/06/22 11:26:22;;;;;;;0.00;0.00;;;;;;;34.34;32.92;101804.78;5012630;28;20149;-70
2023/06/22 11:28:48;;;;;;;0.00;0.00;;;;;;;34.23;32.89;101798.13;5013021;28;20148;-73